Sunflower Gold — JD2460 — position and weather

sailwx.info

Track history (hours):
 
Tides and Currents Weather Stations Pressure Air Temp Water Temp Dewpoint Dewpoint Depression Visibility Wind Speed Wind Dir Waves Ship Positions

Sunflower Gold

Last reported at 2017-Jun-23 12:01 UTC. Time now 2017-Jun-24 12:09 UTC.
Position N 34°36' E 134°56'.

Length 166 m; draft 5.8 m.

Type: Passenger vessel. MMSI: 431000331.

Date/timePositionNaut miles runAvg speedWind from/ knotsBaromVisibWave heightAir tempDewpointWater temp
2017-Jun-23 12:01N 34°36' E 134°56'021.9
2017-Jun-23 12:00N 34°36' E 134°56'1020.5
2017-Jun-23 11:30N 34°36' E 135°09'918.2
2017-Jun-23 11:00N 34°41' E 135°18'2 2.9
2017-Jun-23 10:29N 34°42' E 135°17'0 0.0
2017-Jun-23 09:59N 34°42' E 135°17'0 0.0
2017-Jun-23 09:29N 34°42' E 135°17'0 0.0
2017-Jun-23 08:59N 34°42' E 135°17'0 0.0
2017-Jun-23 08:29N 34°42' E 135°17'0 0.0
2017-Jun-23 07:59N 34°42' E 135°17'0 0.0
2017-Jun-23 07:23N 34°42' E 135°17'0 0.0
2017-Jun-23 06:59N 34°42' E 135°17'0 0.0
2017-Jun-23 06:29N 34°42' E 135°17'0 0.0
2017-Jun-23 05:59N 34°42' E 135°17'0 0.0
2017-Jun-23 05:29N 34°42' E 135°17'0 0.0
2017-Jun-23 04:53N 34°42' E 135°17'0 0.0
2017-Jun-23 04:29N 34°42' E 135°17'0 0.0
2017-Jun-23 03:47N 34°42' E 135°17'0 0.0
2017-Jun-23 03:29N 34°42' E 135°17'0 0.0
2017-Jun-23 02:59N 34°42' E 135°17'0 0.0
2017-Jun-23 02:29N 34°42' E 135°17'0 0.0
2017-Jun-23 01:47N 34°42' E 135°17'0 0.0
2017-Jun-23 01:29N 34°42' E 135°17'0 0.0
2017-Jun-23 00:59N 34°42' E 135°17'0 0.0
2017-Jun-23 00:11N 34°42' E 135°17'0 0.0
2017-Jun-22 23:59N 34°42' E 135°17'0 0.0
2017-Jun-22 23:29N 34°42' E 135°17'0 0.0
2017-Jun-22 22:59N 34°42' E 135°17'0 0.0
2017-Jun-22 22:29N 34°42' E 135°17'0 0.0
2017-Jun-22 21:53N 34°42' E 135°17'0 0.1
2017-Jun-22 21:30N 34°42' E 135°17'612.9
2017-Jun-22 21:00N 34°36' E 135°14'1019.8
2017-Jun-22 20:30N 34°36' E 135°02'714.2
2017-Jun-22 20:00N 34°36' E 134°54'1 0.0
2017-Jun-21 11:21N 34°35' E 134°53'721.0
2017-Jun-21 11:01N 34°37' E 135°01'1121.5
2017-Jun-21 10:30N 34°36' E 135°14'611.7
2017-Jun-21 10:00N 34°42' E 135°17'0 0.0
2017-Jun-21 09:22N 34°42' E 135°17'0 0.0
2017-Jun-21 08:58N 34°42' E 135°17'0 0.0
2017-Jun-21 08:28N 34°42' E 135°17'0 0.0
2017-Jun-21 07:58N 34°42' E 135°17'0 0.0
2017-Jun-21 07:28N 34°42' E 135°17'0 0.0
2017-Jun-21 06:58N 34°42' E 135°17'0 0.0
2017-Jun-21 06:28N 34°42' E 135°17'0 0.0
2017-Jun-21 05:58N 34°42' E 135°17'0 0.0
2017-Jun-21 05:22N 34°42' E 135°17'0 0.0
2017-Jun-21 04:58N 34°42' E 135°17'0 0.0
2017-Jun-21 04:22N 34°42' E 135°17'0 0.0
2017-Jun-21 03:58N 34°42' E 135°17'0 0.0
2017-Jun-21 03:28N 34°42' E 135°17'0 0.0
2017-Jun-21 02:58N 34°42' E 135°17'0 0.0
2017-Jun-21 02:28N 34°42' E 135°17'0 0.0
2017-Jun-21 01:58N 34°42' E 135°17'0 0.0
2017-Jun-21 01:28N 34°42' E 135°17'0 0.0
2017-Jun-21 00:58N 34°42' E 135°17'0 0.0
2017-Jun-21 00:28N 34°42' E 135°17'0 0.0
2017-Jun-20 23:52N 34°42' E 135°17'0 0.0
2017-Jun-20 23:28N 34°42' E 135°17'0 0.0
2017-Jun-20 22:58N 34°42' E 135°17'0 0.0
2017-Jun-20 22:28N 34°42' E 135°17'0 0.0
2017-Jun-20 21:58N 34°42' E 135°17'0 0.2
2017-Jun-20 21:30N 34°42' E 135°17'612.3
2017-Jun-20 21:00N 34°36' E 135°15'1019.5
2017-Jun-20 20:30N 34°36' E 135°03'815.4
2017-Jun-20 20:00N 34°35' E 134°53'2 0.1
2017-Jun-19 11:18N 34°36' E 134°55'619.0
2017-Jun-19 11:00N 34°37' E 135°02'919.0
2017-Jun-19 10:30N 34°37' E 135°13'612.3
2017-Jun-19 10:00N 34°42' E 135°17'0 0.0
2017-Jun-19 09:15N 34°42' E 135°17'0 0.0
2017-Jun-19 08:57N 34°42' E 135°17'0 0.0
2017-Jun-19 08:27N 34°42' E 135°17'0 0.0
2017-Jun-19 07:57N 34°42' E 135°17'0 0.0
2017-Jun-19 07:27N 34°42' E 135°17'0 0.0
2017-Jun-19 06:57N 34°42' E 135°17'0 0.0
2017-Jun-19 06:27N 34°42' E 135°17'0 0.0
2017-Jun-19 05:51N 34°42' E 135°17'0 0.0
2017-Jun-19 05:27N 34°42' E 135°17'0 0.0
2017-Jun-19 04:51N 34°42' E 135°17'0 0.0
2017-Jun-19 04:27N 34°42' E 135°17'0 0.0
2017-Jun-19 03:51N 34°42' E 135°17'0 0.0
2017-Jun-19 03:21N 34°42' E 135°17'0 0.0
2017-Jun-19 02:51N 34°42' E 135°17'0 0.0
2017-Jun-19 02:27N 34°42' E 135°17'0 0.0
2017-Jun-19 01:57N 34°42' E 135°17'0 0.0
2017-Jun-19 01:15N 34°42' E 135°17'0 0.0
2017-Jun-19 00:57N 34°42' E 135°17'0 0.0
2017-Jun-19 00:27N 34°42' E 135°17'0 0.0
2017-Jun-18 23:57N 34°42' E 135°17'0 0.0
2017-Jun-18 23:27N 34°42' E 135°17'0 0.0
2017-Jun-18 22:51N 34°42' E 135°17'0 0.0
2017-Jun-18 22:27N 34°42' E 135°17'0 0.0
2017-Jun-18 21:57N 34°42' E 135°17'0 0.0
2017-Jun-18 21:30N 34°42' E 135°17'611.6
2017-Jun-18 21:01N 34°36' E 135°18'1019.4
2017-Jun-18 20:31N 34°34' E 135°06'916.9
2017-Jun-18 20:00N 34°36' E 134°56'0 0.0
2017-Jun-17 12:07N 34°36' E 134°56'219.4
2017-Jun-17 12:00N 34°37' E 134°58'917.7
2017-Jun-17 11:30N 34°36' E 135°09'918.1
2017-Jun-17 11:00N 34°40' E 135°18'2 4.0
2017-Jun-17 10:30N 34°42' E 135°17'0 0.0
2017-Jun-17 09:57N 34°42' E 135°17'0 0.0
2017-Jun-17 09:27N 34°42' E 135°17'0 0.0
2017-Jun-17 08:57N 34°42' E 135°17'0 0.0
2017-Jun-17 08:27N 34°42' E 135°17'0 0.0
2017-Jun-17 07:57N 34°42' E 135°17'0 0.0
2017-Jun-17 07:27N 34°42' E 135°17'0 0.0
2017-Jun-17 06:57N 34°42' E 135°17'0 0.0
2017-Jun-17 06:27N 34°42' E 135°17'0 0.0
2017-Jun-17 05:57N 34°42' E 135°17'0 0.0
2017-Jun-17 05:27N 34°42' E 135°17'0 0.0
2017-Jun-17 04:57N 34°42' E 135°17'0 0.0
2017-Jun-17 04:15N 34°42' E 135°17'0 0.0
2017-Jun-17 03:57N 34°42' E 135°17'0 0.0
2017-Jun-17 03:21N 34°42' E 135°17'0 0.0
2017-Jun-17 02:57N 34°42' E 135°17'0 0.0
2017-Jun-17 02:27N 34°42' E 135°17'0 0.0
2017-Jun-17 01:57N 34°42' E 135°17'0 0.0
2017-Jun-17 01:21N 34°42' E 135°17'0 0.0
2017-Jun-17 00:57N 34°42' E 135°17'0 0.0
2017-Jun-17 00:27N 34°42' E 135°17'0 0.0
2017-Jun-16 23:57N 34°42' E 135°17'0 0.0
2017-Jun-16 23:27N 34°42' E 135°17'0 0.0
2017-Jun-16 22:57N 34°42' E 135°17'2 4.2
2017-Jun-16 22:30N 34°41' E 135°19'815.7
2017-Jun-16 22:00N 34°34' E 135°13'816.9
2017-Jun-16 21:30N 34°36' E 135°03'1019.2
2017-Jun-16 20:58N 34°33' E 134°51'2 0.1
2017-Jun-15 11:34N 34°34' E 134°48'321.2
2017-Jun-15 11:25N 34°35' E 134°52'819.5
2017-Jun-15 11:00N 34°37' E 135°02'918.9
2017-Jun-15 10:30N 34°37' E 135°13'612.1
2017-Jun-15 10:00N 34°42' E 135°17'0 0.0
2017-Jun-15 09:24N 34°42' E 135°17'0 0.0
2017-Jun-15 08:54N 34°42' E 135°17'0 0.0
2017-Jun-15 08:30N 34°42' E 135°17'0 0.0
2017-Jun-15 08:00N 34°42' E 135°17'0 0.0
2017-Jun-15 07:30N 34°42' E 135°17'0 0.0
2017-Jun-15 06:54N 34°42' E 135°17'0 0.0
2017-Jun-15 06:30N 34°42' E 135°17'0 0.0
2017-Jun-15 05:48N 34°42' E 135°17'0 0.0
2017-Jun-15 05:30N 34°42' E 135°17'0 0.0
2017-Jun-15 05:00N 34°42' E 135°17'0 0.0
2017-Jun-15 04:30N 34°42' E 135°17'0 0.0
2017-Jun-15 03:54N 34°42' E 135°17'0 0.0
2017-Jun-15 03:24N 34°42' E 135°17'0 0.0
2017-Jun-15 03:00N 34°42' E 135°17'0 0.0
2017-Jun-15 02:30N 34°42' E 135°17'0 0.0
2017-Jun-15 02:00N 34°42' E 135°17'0 0.0
2017-Jun-15 01:30N 34°42' E 135°17'0 0.0
2017-Jun-15 01:00N 34°42' E 135°17'0 0.0
2017-Jun-15 00:30N 34°42' E 135°17'0 0.0
2017-Jun-15 00:00N 34°42' E 135°17'0 0.0
2017-Jun-14 23:24N 34°42' E 135°17'0 0.0
2017-Jun-14 23:00N 34°42' E 135°17'0 0.0
2017-Jun-14 22:30N 34°42' E 135°17'0 0.0
2017-Jun-14 22:00N 34°42' E 135°17'0 0.0
2017-Jun-14 21:30N 34°42' E 135°17'5 9.2
2017-Jun-14 21:01N 34°37' E 135°17'1019.2
2017-Jun-14 20:30N 34°35' E 135°05'1019.4
2017-Jun-14 20:00N 34°35' E 134°54'  
Track history (hours):
 
Tides and Currents Weather Stations Pressure Air Temp Water Temp Dewpoint Dewpoint Depression Visibility Wind Speed Wind Dir Waves Ship Positions

Sunflower Gold

Last reported at 2017-Jun-23 12:01 UTC. Time now 2017-Jun-24 12:09 UTC.
Position N 34°36' E 134°56'.

Length 166 m; draft 5.8 m.

Type: Passenger vessel. MMSI: 431000331.

Date/timePositionNaut miles runAvg speedWind from/ knotsBaromVisibWave heightAir tempDewpointWater temp
2017-Jun-23 12:01N 34°36' E 134°56'021.9
2017-Jun-23 12:00N 34°36' E 134°56'1020.5
2017-Jun-23 11:30N 34°36' E 135°09'918.2
2017-Jun-23 11:00N 34°41' E 135°18'2 2.9
2017-Jun-23 10:29N 34°42' E 135°17'0 0.0
2017-Jun-23 09:59N 34°42' E 135°17'0 0.0
2017-Jun-23 09:29N 34°42' E 135°17'0 0.0
2017-Jun-23 08:59N 34°42' E 135°17'0 0.0
2017-Jun-23 08:29N 34°42' E 135°17'0 0.0
2017-Jun-23 07:59N 34°42' E 135°17'0 0.0
2017-Jun-23 07:23N 34°42' E 135°17'0 0.0
2017-Jun-23 06:59N 34°42' E 135°17'0 0.0
2017-Jun-23 06:29N 34°42' E 135°17'0 0.0
2017-Jun-23 05:59N 34°42' E 135°17'0 0.0
2017-Jun-23 05:29N 34°42' E 135°17'0 0.0
2017-Jun-23 04:53N 34°42' E 135°17'0 0.0
2017-Jun-23 04:29N 34°42' E 135°17'0 0.0
2017-Jun-23 03:47N 34°42' E 135°17'0 0.0
2017-Jun-23 03:29N 34°42' E 135°17'0 0.0
2017-Jun-23 02:59N 34°42' E 135°17'0 0.0
2017-Jun-23 02:29N 34°42' E 135°17'0 0.0
2017-Jun-23 01:47N 34°42' E 135°17'0 0.0
2017-Jun-23 01:29N 34°42' E 135°17'0 0.0
2017-Jun-23 00:59N 34°42' E 135°17'0 0.0
2017-Jun-23 00:11N 34°42' E 135°17'0 0.0
2017-Jun-22 23:59N 34°42' E 135°17'0 0.0
2017-Jun-22 23:29N 34°42' E 135°17'0 0.0
2017-Jun-22 22:59N 34°42' E 135°17'0 0.0
2017-Jun-22 22:29N 34°42' E 135°17'0 0.0
2017-Jun-22 21:53N 34°42' E 135°17'0 0.1
2017-Jun-22 21:30N 34°42' E 135°17'612.9
2017-Jun-22 21:00N 34°36' E 135°14'1019.8
2017-Jun-22 20:30N 34°36' E 135°02'714.2
2017-Jun-22 20:00N 34°36' E 134°54'1 0.0
2017-Jun-21 11:21N 34°35' E 134°53'721.0
2017-Jun-21 11:01N 34°37' E 135°01'1121.5
2017-Jun-21 10:30N 34°36' E 135°14'611.7
2017-Jun-21 10:00N 34°42' E 135°17'0 0.0
2017-Jun-21 09:22N 34°42' E 135°17'0 0.0
2017-Jun-21 08:58N 34°42' E 135°17'0 0.0
2017-Jun-21 08:28N 34°42' E 135°17'0 0.0
2017-Jun-21 07:58N 34°42' E 135°17'0 0.0
2017-Jun-21 07:28N 34°42' E 135°17'0 0.0
2017-Jun-21 06:58N 34°42' E 135°17'0 0.0
2017-Jun-21 06:28N 34°42' E 135°17'0 0.0
2017-Jun-21 05:58N 34°42' E 135°17'0 0.0
2017-Jun-21 05:22N 34°42' E 135°17'0 0.0
2017-Jun-21 04:58N 34°42' E 135°17'0 0.0
2017-Jun-21 04:22N 34°42' E 135°17'0 0.0
2017-Jun-21 03:58N 34°42' E 135°17'0 0.0
2017-Jun-21 03:28N 34°42' E 135°17'0 0.0
2017-Jun-21 02:58N 34°42' E 135°17'0 0.0
2017-Jun-21 02:28N 34°42' E 135°17'0 0.0
2017-Jun-21 01:58N 34°42' E 135°17'0 0.0
2017-Jun-21 01:28N 34°42' E 135°17'0 0.0
2017-Jun-21 00:58N 34°42' E 135°17'0 0.0
2017-Jun-21 00:28N 34°42' E 135°17'0 0.0
2017-Jun-20 23:52N 34°42' E 135°17'0 0.0
2017-Jun-20 23:28N 34°42' E 135°17'0 0.0
2017-Jun-20 22:58N 34°42' E 135°17'0 0.0
2017-Jun-20 22:28N 34°42' E 135°17'0 0.0
2017-Jun-20 21:58N 34°42' E 135°17'0 0.2
2017-Jun-20 21:30N 34°42' E 135°17'612.3
2017-Jun-20 21:00N 34°36' E 135°15'1019.5
2017-Jun-20 20:30N 34°36' E 135°03'815.4
2017-Jun-20 20:00N 34°35' E 134°53'2 0.1
2017-Jun-19 11:18N 34°36' E 134°55'619.0
2017-Jun-19 11:00N 34°37' E 135°02'919.0
2017-Jun-19 10:30N 34°37' E 135°13'612.3
2017-Jun-19 10:00N 34°42' E 135°17'0 0.0
2017-Jun-19 09:15N 34°42' E 135°17'0 0.0
2017-Jun-19 08:57N 34°42' E 135°17'0 0.0
2017-Jun-19 08:27N 34°42' E 135°17'0 0.0
2017-Jun-19 07:57N 34°42' E 135°17'0 0.0
2017-Jun-19 07:27N 34°42' E 135°17'0 0.0
2017-Jun-19 06:57N 34°42' E 135°17'0 0.0
2017-Jun-19 06:27N 34°42' E 135°17'0 0.0
2017-Jun-19 05:51N 34°42' E 135°17'0 0.0
2017-Jun-19 05:27N 34°42' E 135°17'0 0.0
2017-Jun-19 04:51N 34°42' E 135°17'0 0.0
2017-Jun-19 04:27N 34°42' E 135°17'0 0.0
2017-Jun-19 03:51N 34°42' E 135°17'0 0.0
2017-Jun-19 03:21N 34°42' E 135°17'0 0.0
2017-Jun-19 02:51N 34°42' E 135°17'0 0.0
2017-Jun-19 02:27N 34°42' E 135°17'0 0.0
2017-Jun-19 01:57N 34°42' E 135°17'0 0.0
2017-Jun-19 01:15N 34°42' E 135°17'0 0.0
2017-Jun-19 00:57N 34°42' E 135°17'0 0.0
2017-Jun-19 00:27N 34°42' E 135°17'0 0.0
2017-Jun-18 23:57N 34°42' E 135°17'0 0.0
2017-Jun-18 23:27N 34°42' E 135°17'0 0.0
2017-Jun-18 22:51N 34°42' E 135°17'0 0.0
2017-Jun-18 22:27N 34°42' E 135°17'0 0.0
2017-Jun-18 21:57N 34°42' E 135°17'0 0.0
2017-Jun-18 21:30N 34°42' E 135°17'611.6
2017-Jun-18 21:01N 34°36' E 135°18'1019.4
2017-Jun-18 20:31N 34°34' E 135°06'916.9
2017-Jun-18 20:00N 34°36' E 134°56'0 0.0
2017-Jun-17 12:07N 34°36' E 134°56'219.4
2017-Jun-17 12:00N 34°37' E 134°58'917.7
2017-Jun-17 11:30N 34°36' E 135°09'918.1
2017-Jun-17 11:00N 34°40' E 135°18'2 4.0
2017-Jun-17 10:30N 34°42' E 135°17'0 0.0
2017-Jun-17 09:57N 34°42' E 135°17'0 0.0
2017-Jun-17 09:27N 34°42' E 135°17'0 0.0
2017-Jun-17 08:57N 34°42' E 135°17'0 0.0
2017-Jun-17 08:27N 34°42' E 135°17'0 0.0
2017-Jun-17 07:57N 34°42' E 135°17'0 0.0
2017-Jun-17 07:27N 34°42' E 135°17'0 0.0
2017-Jun-17 06:57N 34°42' E 135°17'0 0.0
2017-Jun-17 06:27N 34°42' E 135°17'0 0.0
2017-Jun-17 05:57N 34°42' E 135°17'0 0.0
2017-Jun-17 05:27N 34°42' E 135°17'0 0.0
2017-Jun-17 04:57N 34°42' E 135°17'0 0.0
2017-Jun-17 04:15N 34°42' E 135°17'0 0.0
2017-Jun-17 03:57N 34°42' E 135°17'0 0.0
2017-Jun-17 03:21N 34°42' E 135°17'0 0.0
2017-Jun-17 02:57N 34°42' E 135°17'0 0.0
2017-Jun-17 02:27N 34°42' E 135°17'0 0.0
2017-Jun-17 01:57N 34°42' E 135°17'0 0.0
2017-Jun-17 01:21N 34°42' E 135°17'0 0.0
2017-Jun-17 00:57N 34°42' E 135°17'0 0.0
2017-Jun-17 00:27N 34°42' E 135°17'0 0.0
2017-Jun-16 23:57N 34°42' E 135°17'0 0.0
2017-Jun-16 23:27N 34°42' E 135°17'0 0.0
2017-Jun-16 22:57N 34°42' E 135°17'2 4.2
2017-Jun-16 22:30N 34°41' E 135°19'815.7
2017-Jun-16 22:00N 34°34' E 135°13'816.9
2017-Jun-16 21:30N 34°36' E 135°03'1019.2
2017-Jun-16 20:58N 34°33' E 134°51'2 0.1
2017-Jun-15 11:34N 34°34' E 134°48'321.2
2017-Jun-15 11:25N 34°35' E 134°52'819.5
2017-Jun-15 11:00N 34°37' E 135°02'918.9
2017-Jun-15 10:30N 34°37' E 135°13'612.1
2017-Jun-15 10:00N 34°42' E 135°17'0 0.0
2017-Jun-15 09:24N 34°42' E 135°17'0 0.0
2017-Jun-15 08:54N 34°42' E 135°17'0 0.0
2017-Jun-15 08:30N 34°42' E 135°17'0 0.0
2017-Jun-15 08:00N 34°42' E 135°17'0 0.0
2017-Jun-15 07:30N 34°42' E 135°17'0 0.0
2017-Jun-15 06:54N 34°42' E 135°17'0 0.0
2017-Jun-15 06:30N 34°42' E 135°17'0 0.0
2017-Jun-15 05:48N 34°42' E 135°17'0 0.0
2017-Jun-15 05:30N 34°42' E 135°17'0 0.0
2017-Jun-15 05:00N 34°42' E 135°17'0 0.0
2017-Jun-15 04:30N 34°42' E 135°17'0 0.0
2017-Jun-15 03:54N 34°42' E 135°17'0 0.0
2017-Jun-15 03:24N 34°42' E 135°17'0 0.0
2017-Jun-15 03:00N 34°42' E 135°17'0 0.0
2017-Jun-15 02:30N 34°42' E 135°17'0 0.0
2017-Jun-15 02:00N 34°42' E 135°17'0 0.0
2017-Jun-15 01:30N 34°42' E 135°17'0 0.0
2017-Jun-15 01:00N 34°42' E 135°17'0 0.0
2017-Jun-15 00:30N 34°42' E 135°17'0 0.0
2017-Jun-15 00:00N 34°42' E 135°17'0 0.0
2017-Jun-14 23:24N 34°42' E 135°17'0 0.0
2017-Jun-14 23:00N 34°42' E 135°17'0 0.0
2017-Jun-14 22:30N 34°42' E 135°17'0 0.0
2017-Jun-14 22:00N 34°42' E 135°17'0 0.0
2017-Jun-14 21:30N 34°42' E 135°17'5 9.2
2017-Jun-14 21:01N 34°37' E 135°17'1019.2
2017-Jun-14 20:30N 34°35' E 135°05'1019.4
2017-Jun-14 20:00N 34°35' E 134°54'  

Dump ship's entire track history